Time;durP1;ratioP1;P1;durP2;ratioP2;P2;SDS_P1;SDS_P2;PMS_P1;PMS_P2;Temp;Humidity;BMP_temperature;BMP_pressure;BME280_temperature;BME280_humidity;BME280_pressure;Samples;Min_cycle;Max_cycle;Signal;HPM_P1;HPM_P2
2022/05/08 00:02:20;;;;;;;3.65;2.90;;;;;;;12.91;91.94;100728.81;5052241;28;20203;-68
2022/05/08 00:04:51;;;;;;;2.95;2.70;;;;;;;12.66;94.25;100714.53;5013400;28;20204;-67
2022/05/08 00:07:18;;;;;;;3.85;3.00;;;;;;;12.74;93.78;100727.63;5035331;28;20624;-68
2022/05/08 00:09:44;;;;;;;8.98;3.20;;;;;;;12.67;95.69;100733.59;5051168;28;20204;-67
2022/05/08 00:12:12;;;;;;;3.15;2.75;;;;;;;12.11;98.07;100642.47;5051116;28;20800;-67
2022/05/08 00:14:39;;;;;;;5.05;2.65;;;;;;;12.47;98.75;100724.56;5051958;28;20211;-67
2022/05/08 00:17:06;;;;;;;4.47;3.35;;;;;;;12.48;99.49;100715.94;5051955;28;20295;-67
2022/05/08 00:19:34;;;;;;;3.13;2.83;;;;;;;12.47;100.00;100715.06;5051132;28;20195;-67
2022/05/08 00:22:01;;;;;;;4.30;2.88;;;;;;;12.21;100.00;100695.50;5032298;28;20191;-67
2022/05/08 00:24:27;;;;;;;5.20;3.00;;;;;;;12.32;100.00;100715.66;5016271;28;20257;-67
2022/05/08 00:26:54;;;;;;;4.95;2.83;;;;;;;12.29;100.00;100715.59;5051239;28;20671;-68
2022/05/08 00:29:21;;;;;;;3.03;2.67;;;;;;;12.12;100.00;100709.22;5051076;28;20191;-67
2022/05/08 00:31:48;;;;;;;7.40;3.72;;;;;;;12.08;100.00;100699.59;5051574;28;20204;-67
2022/05/08 00:34:14;;;;;;;4.55;2.80;;;;;;;12.11;100.00;100715.25;5051310;28;20215;-67
2022/05/08 00:36:42;;;;;;;4.05;3.03;;;;;;;12.08;100.00;100712.59;5051109;28;20211;-67
2022/05/08 00:39:09;;;;;;;3.42;2.97;;;;;;;11.93;100.00;100699.31;5050389;28;20195;-67
2022/05/08 00:41:36;;;;;;;3.80;2.63;;;;;;;11.83;100.00;100687.00;5051209;28;20202;-67
2022/05/08 00:44:03;;;;;;;3.25;2.78;;;;;;;12.00;96.31;100701.19;5051060;28;20679;-67
2022/05/08 00:46:31;;;;;;;4.07;2.70;;;;;;;11.76;94.42;100685.13;5051172;28;20203;-68
2022/05/08 00:48:58;;;;;;;5.85;3.40;;;;;;;11.84;94.22;100700.00;5048715;28;20207;-68
2022/05/08 00:51:25;;;;;;;6.88;2.55;;;;;;;11.85;91.80;100695.69;5050914;28;20602;-67
2022/05/08 00:53:55;;;;;;;6.22;3.33;;;;;;;12.01;89.72;100704.66;5051078;28;20215;-68
2022/05/08 00:56:22;;;;;;;7.47;3.15;;;;;;;11.95;88.61;100697.59;5050960;28;20211;-67
2022/05/08 00:58:50;;;;;;;6.35;2.60;;;;;;;12.04;84.32;100702.13;5050544;28;20199;-67
2022/05/08 01:01:17;;;;;;;7.07;3.08;;;;;;;12.01;84.34;100697.75;5050505;28;20286;-67
2022/05/08 01:03:45;;;;;;;3.65;2.47;;;;;;;12.01;84.04;100697.75;5050544;28;20952;-67
2022/05/08 01:06:13;;;;;;;3.92;2.70;;;;;;;12.01;84.36;100700.34;5051329;28;20273;-67
2022/05/08 01:08:45;;;;;;;3.28;2.90;;;;;;;12.05;83.18;100691.75;5050440;28;20199;-67
2022/05/08 01:11:14;;;;;;;2.72;2.50;;;;;;;12.03;84.28;100701.22;5050519;28;20642;-67
2022/05/08 01:13:43;;;;;;;6.07;2.97;;;;;;;12.00;84.54;100695.97;5050544;28;20724;-67
2022/05/08 01:16:11;;;;;;;7.65;2.67;;;;;;;12.00;84.51;100700.31;5050798;28;20722;-67
2022/05/08 01:18:38;;;;;;;3.20;2.60;;;;;;;11.82;84.87;100682.63;5050502;28;20298;-67
2022/05/08 01:21:09;;;;;;;3.95;2.80;;;;;;;11.79;84.54;100679.97;5050264;28;20302;-67
2022/05/08 01:23:37;;;;;;;3.30;2.80;;;;;;;11.72;83.65;100685.91;5050373;28;20204;-67
2022/05/08 01:26:03;;;;;;;6.18;3.00;;;;;;;11.75;84.37;100704.13;5050604;28;20575;-68
2022/05/08 01:28:30;;;;;;;5.63;2.78;;;;;;;11.64;84.15;100687.41;5050636;28;20207;-68
2022/05/08 01:30:58;;;;;;;4.30;2.80;;;;;;;11.68;83.60;100684.94;5049935;28;20293;-67
2022/05/08 01:33:25;;;;;;;3.90;2.70;;;;;;;11.56;84.94;100689.00;5050593;28;20200;-67
2022/05/08 01:35:52;;;;;;;2.83;2.63;;;;;;;11.62;85.39;100695.19;5049549;28;20211;-67
2022/05/08 01:38:22;;;;;;;7.30;2.97;;;;;;;11.70;85.05;100701.41;5050564;28;20241;-68
2022/05/08 01:40:51;;;;;;;4.25;2.92;;;;;;;11.67;85.10;100697.88;5031657;28;20207;-68
2022/05/08 01:43:18;;;;;;;7.30;3.35;;;;;;;11.41;85.44;100677.44;5050496;28;20286;-68
2022/05/08 01:45:47;;;;;;;4.85;2.88;;;;;;;11.50;85.76;100691.47;5015064;28;20282;-68
2022/05/08 01:48:22;;;;;;;4.43;3.08;;;;;;;11.26;85.74;100661.56;5050332;28;20739;-68
2022/05/08 01:50:50;;;;;;;3.00;2.70;;;;;;;11.35;84.83;100669.53;5050417;28;20330;-67
2022/05/08 01:53:18;;;;;;;8.05;3.42;;;;;;;11.35;91.03;100681.63;5050675;28;20231;-67
2022/05/08 01:55:45;;;;;;;3.63;3.00;;;;;;;11.35;95.73;100687.69;5049725;28;20791;-68
2022/05/08 01:58:14;;;;;;;10.65;3.30;;;;;;;11.25;97.65;100661.50;5050476;28;20207;-68
2022/05/08 02:00:40;;;;;;;4.82;3.00;;;;;;;11.17;96.78;100676.91;5051726;28;20660;-68
2022/05/08 02:03:07;;;;;;;6.03;3.55;;;;;;;10.89;95.47;100651.19;5054152;28;20348;-67
2022/05/08 02:05:34;;;;;;;3.25;2.85;;;;;;;11.14;96.87;100699.31;5053942;28;20203;-68
2022/05/08 02:08:02;;;;;;;8.15;3.13;;;;;;;11.04;98.70;100667.09;5018678;28;20199;-68
2022/05/08 02:10:29;;;;;;;2.92;2.72;;;;;;;10.91;100.00;100667.69;5054169;28;20214;-67
2022/05/08 02:12:56;;;;;;;4.35;2.85;;;;;;;10.88;100.00;100680.56;5054138;28;20242;-67
2022/05/08 02:15:29;;;;;;;3.33;3.03;;;;;;;11.10;100.00;100700.97;5034776;28;20277;-67
2022/05/08 02:17:57;;;;;;;4.07;3.20;;;;;;;10.82;100.00;100683.03;5054199;28;20241;-67
2022/05/08 02:20:24;;;;;;;5.80;3.25;;;;;;;10.85;100.00;100672.72;5019124;28;20285;-67
2022/05/08 02:22:51;;;;;;;7.70;3.53;;;;;;;10.95;100.00;100695.47;5018435;28;20256;-67
2022/05/08 02:25:19;;;;;;;5.80;3.30;;;;;;;10.98;100.00;100703.31;5053943;28;20249;-67
2022/05/08 02:27:49;;;;;;;3.42;3.15;;;;;;;10.77;100.00;100697.63;5053774;28;20254;-68
2022/05/08 02:30:18;;;;;;;3.33;3.05;;;;;;;10.62;100.00;100694.66;5053980;28;20227;-68
2022/05/08 02:32:46;;;;;;;8.43;4.22;;;;;;;10.68;100.00;100705.16;5053603;28;20199;-67
2022/05/08 02:35:13;;;;;;;3.63;3.33;;;;;;;10.55;100.00;100708.28;5052700;28;20309;-68
2022/05/08 02:37:41;;;;;;;3.45;3.17;;;;;;;10.42;100.00;100699.31;5052751;28;20198;-67
2022/05/08 02:40:09;;;;;;;5.53;3.75;;;;;;;10.27;100.00;100696.34;5052883;28;20250;-67
2022/05/08 02:42:36;;;;;;;3.88;3.55;;;;;;;10.11;100.00;100692.44;5065652;28;20195;-67
2022/05/08 02:45:03;;;;;;;7.78;3.83;;;;;;;10.09;100.00;100712.25;5054693;28;20222;-67
2022/05/08 02:47:32;;;;;;;10.35;3.65;;;;;;;10.12;100.00;100708.88;5053657;28;20196;-67
2022/05/08 02:50:00;;;;;;;3.95;3.63;;;;;;;10.17;100.00;100710.75;5053183;28;20211;-67
2022/05/08 02:52:27;;;;;;;6.00;3.90;;;;;;;10.09;100.00;100712.25;5052227;28;20212;-67
2022/05/08 02:54:54;;;;;;;3.70;3.40;;;;;;;10.13;100.00;100708.03;5052758;28;20228;-68
2022/05/08 03:00:06;;;;;;;5.18;3.83;;;;;;;10.08;100.00;100705.31;5052064;28;20203;-67
2022/05/08 03:02:33;;;;;;;3.70;3.38;;;;;;;10.22;100.00;100714.38;5052634;28;20231;-68
2022/05/08 03:05:01;;;;;;;4.13;3.72;;;;;;;10.02;100.00;100689.63;5052414;28;20199;-67
2022/05/08 03:07:29;;;;;;;8.30;3.70;;;;;;;10.08;100.00;100704.44;5053157;28;20652;-67
2022/05/08 03:09:56;;;;;;;6.53;3.63;;;;;;;10.18;100.00;100717.72;5052270;28;20196;-67
2022/05/08 03:12:23;;;;;;;5.50;3.40;;;;;;;10.20;100.00;100715.19;5051097;28;20227;-68
2022/05/08 03:14:50;;;;;;;4.28;3.88;;;;;;;10.19;100.00;100718.59;5051872;28;20624;-67
2022/05/08 03:17:17;;;;;;;6.28;3.70;;;;;;;10.19;100.00;100719.47;5053032;28;20199;-68
2022/05/08 03:19:44;;;;;;;4.97;3.90;;;;;;;10.08;100.00;100715.69;5052291;28;20855;-67
2022/05/08 03:22:12;;;;;;;9.82;3.80;;;;;;;10.20;100.00;100718.63;5052087;28;20269;-67
2022/05/08 03:24:39;;;;;;;4.32;3.60;;;;;;;10.13;100.00;100723.59;5036622;28;20203;-67
2022/05/08 03:27:06;;;;;;;6.75;3.63;;;;;;;10.11;100.00;100726.13;5052848;28;20276;-67
2022/05/08 03:29:33;;;;;;;5.20;3.80;;;;;;;10.06;100.00;100722.50;5052762;28;20207;-67
2022/05/08 03:32:01;;;;;;;8.35;4.13;;;;;;;10.04;100.00;100711.25;5052059;28;20683;-67
2022/05/08 03:34:28;;;;;;;10.70;3.70;;;;;;;10.18;100.00;100725.47;5017324;28;20223;-67
2022/05/08 03:36:55;;;;;;;4.00;3.55;;;;;;;10.28;100.00;100724.88;5051521;28;20667;-67
2022/05/08 03:39:23;;;;;;;4.40;4.00;;;;;;;10.47;100.00;100738.31;5052163;28;20222;-67
2022/05/08 03:41:50;;;;;;;7.03;4.05;;;;;;;10.59;100.00;100733.47;5051757;28;20210;-68
2022/05/08 03:44:16;;;;;;;6.00;3.65;;;;;;;10.62;100.00;100720.56;5052208;28;20192;-68
2022/05/08 03:46:43;;;;;;;5.75;3.83;;;;;;;10.91;100.00;100741.19;5051624;28;20591;-69
2022/05/08 03:49:10;;;;;;;7.45;3.95;;;;;;;11.06;100.00;100740.66;5052213;28;20203;-67
2022/05/08 03:51:37;;;;;;;7.32;4.10;;;;;;;11.27;100.00;100751.53;5051390;28;20192;-67
2022/05/08 03:54:06;;;;;;;6.20;3.97;;;;;;;11.47;100.00;100738.13;5051417;28;20199;-67
2022/05/08 03:56:35;;;;;;;10.07;3.88;;;;;;;11.80;100.00;100752.78;5051594;28;20199;-67
2022/05/08 03:59:01;;;;;;;6.30;3.78;;;;;;;11.88;100.00;100738.19;5051655;28;20211;-67
2022/05/08 04:01:28;;;;;;;8.40;3.38;;;;;;;12.30;100.00;100758.97;5051825;28;20204;-67
2022/05/08 04:03:55;;;;;;;3.50;3.10;;;;;;;12.42;100.00;100748.78;5051710;28;20694;-67
2022/05/08 04:06:22;;;;;;;11.13;3.33;;;;;;;12.75;100.00;100758.91;5051398;28;20722;-67
2022/05/08 04:08:49;;;;;;;4.00;3.38;;;;;;;13.11;99.53;100749.97;5051809;28;20200;-68
2022/05/08 04:11:16;;;;;;;5.22;3.65;;;;;;;13.65;86.54;100783.75;5052001;28;20200;-67
2022/05/08 04:13:44;;;;;;;3.45;3.15;;;;;;;13.20;83.48;100787.41;5051495;28;20244;-67
2022/05/08 04:16:17;;;;;;;8.48;2.90;;;;;;;12.64;85.03;100777.75;5053407;28;20230;-67
2022/05/08 04:18:44;;;;;;;4.38;2.30;;;;;;;12.21;82.75;100782.16;5065203;28;20253;-67
2022/05/08 04:21:11;;;;;;;4.55;3.15;;;;;;;12.50;83.29;100787.94;5051380;28;20211;-68
2022/05/08 04:26:22;;;;;;;4.28;2.88;;;;;;;12.74;80.53;100795.28;5045684;28;20218;-68
2022/05/08 04:28:50;;;;;;;3.53;3.22;;;;;;;13.13;77.64;100787.28;5051076;28;20268;-68
2022/05/08 04:31:17;;;;;;;5.05;3.15;;;;;;;13.20;76.13;100794.34;5051444;28;20203;-68
2022/05/08 04:33:44;;;;;;;5.70;3.03;;;;;;;13.67;72.27;100801.16;5050721;28;20210;-67
2022/05/08 04:36:11;;;;;;;4.47;3.25;;;;;;;13.99;71.12;100777.22;5051092;28;20250;-68
2022/05/08 04:38:38;;;;;;;4.30;2.70;;;;;;;13.61;70.51;100771.53;5050814;28;20231;-67
2022/05/08 04:41:05;;;;;;;5.35;3.30;;;;;;;13.88;69.61;100724.97;5051275;28;20258;-68
2022/05/08 04:43:32;;;;;;;4.72;3.10;;;;;;;14.96;67.62;100797.44;5051007;28;20199;-67
2022/05/08 04:46:00;;;;;;;3.25;2.83;;;;;;;16.15;61.46;100797.38;5050969;28;20208;-67
2022/05/08 04:48:27;;;;;;;4.65;2.95;;;;;;;17.09;57.78;100804.53;5012456;28;20201;-68
2022/05/08 04:50:54;;;;;;;7.55;3.00;;;;;;;17.19;55.92;100804.53;5040828;28;20659;-67
2022/05/08 04:53:21;;;;;;;6.32;2.72;;;;;;;18.10;53.50;100811.38;5051026;28;20207;-68
2022/05/08 04:55:48;;;;;;;4.80;3.10;;;;;;;17.39;52.49;100808.91;5050900;28;20223;-67
2022/05/08 04:58:14;;;;;;;7.18;3.17;;;;;;;18.17;51.41;100806.09;5050236;28;20202;-68
2022/05/08 05:00:41;;;;;;;3.58;2.85;;;;;;;18.15;51.10;100807.88;5053381;28;20200;-68
2022/05/08 05:03:10;;;;;;;4.53;2.80;;;;;;;17.02;53.51;100780.09;5050649;28;20211;-68
2022/05/08 05:05:37;;;;;;;7.15;3.08;;;;;;;16.97;55.56;100794.06;5050477;28;20195;-68
2022/05/08 05:08:05;;;;;;;2.83;2.63;;;;;;;16.98;55.06;100801.06;5050505;28;20687;-67
2022/05/08 05:10:32;;;;;;;7.82;3.40;;;;;;;17.67;54.00;100801.03;5050419;28;20196;-68
2022/05/08 05:12:58;;;;;;;3.65;2.78;;;;;;;17.79;53.04;100811.50;5050902;28;20235;-69
2022/05/08 05:15:25;;;;;;;14.85;8.15;;;;;;;18.29;60.35;100800.81;5043625;28;20231;-68
2022/05/08 05:17:53;;;;;;;4.20;3.15;;;;;;;17.90;52.47;100819.34;4997779;28;20203;-69
2022/05/08 05:20:21;;;;;;;9.77;2.60;;;;;;;16.53;54.27;100812.31;5038953;28;20218;-68
2022/05/08 05:22:48;;;;;;;3.05;2.65;;;;;;;16.48;56.81;100808.81;5051166;28;20199;-67
2022/05/08 05:25:15;;;;;;;3.50;3.15;;;;;;;15.03;59.86;100804.47;5050728;28;20684;-67
2022/05/08 05:27:42;;;;;;;3.63;3.33;;;;;;;15.59;60.62;100810.13;5050504;28;20709;-66
2022/05/08 05:30:09;;;;;;;3.50;3.20;;;;;;;16.46;58.50;100815.78;5050405;28;20219;-67
2022/05/08 05:32:37;;;;;;;3.53;2.33;;;;;;;14.65;62.56;100814.56;5049794;28;20648;-68
2022/05/08 05:35:04;;;;;;;3.78;3.05;;;;;;;14.27;65.72;100816.69;5051739;28;20682;-67
2022/05/08 05:37:32;;;;;;;3.25;2.55;;;;;;;13.83;65.91;100820.50;5035363;28;20203;-67
2022/05/08 05:39:59;;;;;;;9.23;3.35;;;;;;;13.80;68.64;100805.69;5054365;28;20588;-67
2022/05/08 05:42:26;;;;;;;6.25;3.63;;;;;;;14.29;67.98;100822.84;5054280;28;20274;-68
2022/05/08 05:44:53;;;;;;;10.05;2.83;;;;;;;14.36;68.19;100814.25;5054235;28;20206;-68
2022/05/08 05:50:03;;;;;;;5.03;3.15;;;;;;;13.46;69.77;100779.13;5054341;28;20202;-68
2022/05/08 05:52:35;;;;;;;4.25;3.00;;;;;;;13.52;71.25;100813.97;5015955;28;20192;-68
2022/05/08 05:55:03;;;;;;;4.30;3.33;;;;;;;14.12;70.91;100816.53;5038500;28;20223;-68
2022/05/08 05:57:29;;;;;;;5.75;3.15;;;;;;;14.20;67.79;100808.78;5051164;28;20191;-67
2022/05/08 05:59:56;;;;;;;5.70;3.15;;;;;;;13.96;66.62;100793.72;5049872;28;20208;-67
2022/05/08 06:02:23;;;;;;;4.00;2.88;;;;;;;12.81;73.13;100799.75;5054252;28;20668;-67
2022/05/08 06:04:50;;;;;;;6.80;3.40;;;;;;;13.08;74.83;100808.03;5035614;28;20203;-67
2022/05/08 06:07:17;;;;;;;5.53;3.35;;;;;;;12.75;76.23;100797.94;5055282;28;20203;-67
2022/05/08 06:09:45;;;;;;;4.97;2.80;;;;;;;12.71;78.53;100808.25;5053944;28;20596;-68
2022/05/08 06:12:12;;;;;;;4.88;3.30;;;;;;;12.78;81.34;100804.91;5056534;28;20254;-68
2022/05/08 06:14:39;;;;;;;5.13;3.58;;;;;;;12.89;81.84;100811.19;5053005;28;20204;-67
2022/05/08 06:17:06;;;;;;;10.13;3.53;;;;;;;13.12;79.43;100794.25;5053257;28;20223;-68
2022/05/08 06:19:32;;;;;;;4.93;3.28;;;;;;;13.59;77.79;100814.94;5053336;28;20595;-68
2022/05/08 06:22:02;;;;;;;8.57;3.40;;;;;;;13.81;76.42;100817.84;5016915;28;20751;-67
2022/05/08 06:24:29;;;;;;;5.32;3.58;;;;;;;14.33;72.82;100816.81;5052147;28;20219;-68
2022/05/08 06:26:57;;;;;;;7.57;3.38;;;;;;;14.44;72.88;100810.84;5049996;28;20207;-68
2022/05/08 06:29:24;;;;;;;6.40;3.10;;;;;;;14.52;73.00;100811.81;5038371;28;20200;-66
2022/05/08 06:31:52;;;;;;;5.47;3.17;;;;;;;14.19;71.99;100815.75;5053726;28;20265;-65
2022/05/08 06:34:19;;;;;;;4.45;3.72;;;;;;;14.83;69.88;100801.69;5053197;28;20211;-67
2022/05/08 06:36:45;;;;;;;7.80;3.28;;;;;;;14.23;70.41;100814.91;5052974;28;20281;-67
2022/05/08 06:39:13;;;;;;;7.03;3.80;;;;;;;14.31;71.00;100784.56;5052963;28;20202;-67
2022/05/08 06:41:39;;;;;;;5.68;3.47;;;;;;;14.86;68.54;100804.31;5051745;28;20196;-67
2022/05/08 06:44:08;;;;;;;9.25;3.88;;;;;;;15.13;67.78;100816.72;5052526;28;20215;-67
2022/05/08 06:46:36;;;;;;;6.22;3.53;;;;;;;14.84;67.14;100819.09;5052352;28;20602;-68
2022/05/08 06:49:04;;;;;;;7.47;4.20;;;;;;;14.55;68.93;100809.22;5052755;28;20203;-67
2022/05/08 06:51:30;;;;;;;31.95;16.20;;;;;;;15.26;94.41;100815.13;5052590;28;20191;-69
2022/05/08 06:53:57;;;;;;;6.60;3.92;;;;;;;15.44;67.00;100822.22;5053212;28;20212;-68
2022/05/08 06:56:26;;;;;;;3.75;3.28;;;;;;;15.24;65.78;100795.91;5052082;28;20588;-67
2022/05/08 07:01:39;;;;;;;6.10;3.97;;;;;;;15.41;68.67;100815.19;5053066;28;20203;-67
2022/05/08 07:04:08;;;;;;;5.32;3.78;;;;;;;15.91;67.28;100819.94;5053270;28;20631;-67
2022/05/08 07:06:35;;;;;;;5.20;3.33;;;;;;;16.14;64.04;100813.94;5052582;28;20286;-67
2022/05/08 07:09:02;;;;;;;9.60;4.13;;;;;;;16.28;62.02;100822.69;5053038;28;20208;-69
2022/05/08 07:11:30;;;;;;;7.68;4.68;;;;;;;16.29;62.97;100827.06;5014211;28;20192;-68
2022/05/08 07:13:57;;;;;;;6.57;3.90;;;;;;;16.24;60.39;100826.16;5050456;28;20635;-68
2022/05/08 07:16:24;;;;;;;7.22;3.72;;;;;;;16.32;60.80;100819.22;5049238;28;20235;-68
2022/05/08 07:18:52;;;;;;;55.50;28.10;;;;;;;16.59;62.45;100822.81;5052051;28;20271;-69
2022/05/08 07:21:19;;;;;;;4.07;3.28;;;;;;;15.83;61.37;100822.50;5052635;28;20203;-69
2022/05/08 07:23:46;;;;;;;6.00;3.45;;;;;;;15.08;61.87;100734.88;5052142;28;20290;-68
2022/05/08 07:26:13;;;;;;;7.20;3.63;;;;;;;15.48;60.27;100824.00;5052142;28;20218;-68
2022/05/08 07:28:39;;;;;;;4.60;3.50;;;;;;;15.88;60.46;100821.66;5052479;28;20230;-67
2022/05/08 07:31:06;;;;;;;5.68;3.30;;;;;;;15.99;58.16;100812.97;5051718;28;20195;-68
2022/05/08 07:33:34;;;;;;;4.35;3.50;;;;;;;16.04;58.02;100825.22;5051995;28;20207;-68
2022/05/08 07:36:14;;;;;;;4.35;3.50;;;;;;;16.64;58.58;100821.09;5052170;28;20223;-67
2022/05/08 07:38:42;;;;;;;7.70;3.75;;;;;;;16.83;57.11;100817.66;5032379;28;20195;-68
2022/05/08 07:41:11;;;;;;;4.57;3.70;;;;;;;17.03;55.28;100826.38;5049088;28;20644;-67
2022/05/08 07:43:38;;;;;;;6.47;3.28;;;;;;;17.12;55.24;100804.56;5051716;28;20227;-67
2022/05/08 07:46:04;;;;;;;8.45;3.70;;;;;;;17.13;54.22;100820.28;5052042;28;20261;-67
2022/05/08 07:48:32;;;;;;;4.25;3.63;;;;;;;16.91;53.30;100817.66;5016673;28;20656;-67
2022/05/08 07:51:00;;;;;;;5.95;3.65;;;;;;;17.02;50.71;100824.63;5051113;28;20207;-67
2022/05/08 07:53:29;;;;;;;3.83;3.45;;;;;;;16.52;54.45;100811.41;5051362;28;20207;-67
2022/05/08 07:55:57;;;;;;;4.40;3.30;;;;;;;16.80;54.50;100828.13;5033788;28;20222;-67
2022/05/08 07:58:27;;;;;;;5.40;3.25;;;;;;;16.64;53.40;100826.31;5050923;28;20282;-67
2022/05/08 08:00:57;;;;;;;3.20;2.85;;;;;;;16.94;54.21;100826.41;5050675;28;20204;-67
2022/05/08 08:03:25;;;;;;;4.50;3.05;;;;;;;17.15;53.30;100828.16;5052186;28;20203;-68
2022/05/08 08:05:52;;;;;;;8.25;3.25;;;;;;;17.06;52.16;100831.63;5052000;28;20659;-68
2022/05/08 08:08:22;;;;;;;3.72;3.10;;;;;;;16.97;52.92;100825.50;5051342;28;20204;-67
2022/05/08 08:10:52;;;;;;;3.97;2.90;;;;;;;17.03;53.86;100813.28;5051760;28;20203;-67
2022/05/08 08:13:19;;;;;;;4.40;3.22;;;;;;;17.19;53.06;100785.34;5047876;28;20231;-67
2022/05/08 08:15:47;;;;;;;7.05;3.65;;;;;;;17.51;52.61;100808.91;5049530;28;20314;-67
2022/05/08 08:18:14;;;;;;;6.38;3.83;;;;;;;18.13;52.86;100835.88;5050648;28;20254;-67
2022/05/08 08:20:43;;;;;;;5.60;3.28;;;;;;;18.30;53.21;100835.78;5014450;28;20222;-66
2022/05/08 08:23:10;;;;;;;6.13;3.13;;;;;;;18.55;52.73;100831.34;5050635;28;20659;-67
2022/05/08 08:25:37;;;;;;;5.95;3.05;;;;;;;18.39;52.30;100850.63;5050390;28;20203;-67
2022/05/08 08:28:06;;;;;;;5.95;3.17;;;;;;;18.16;52.69;100842.84;5051667;28;20203;-67
2022/05/08 08:30:34;;;;;;;6.18;3.08;;;;;;;17.79;53.18;100842.09;5051396;28;20687;-67
2022/05/08 08:33:01;;;;;;;8.82;3.38;;;;;;;18.24;52.79;100847.19;5051614;28;20214;-68
2022/05/08 08:35:28;;;;;;;6.10;3.50;;;;;;;18.47;52.00;100822.59;5050486;28;20318;-67
2022/05/08 08:37:55;;;;;;;6.47;3.63;;;;;;;18.52;52.27;100833.97;5051294;28;20204;-68
2022/05/08 08:40:22;;;;;;;8.63;3.35;;;;;;;18.53;52.24;100833.97;5050960;28;20208;-67
2022/05/08 08:42:51;;;;;;;4.18;2.95;;;;;;;18.54;52.13;100834.84;5051327;28;20203;-68
2022/05/08 08:48:08;;;;;;;12.48;3.65;;;;;;;18.01;51.87;100817.56;5050876;28;20206;-67
2022/05/08 08:50:36;;;;;;;4.72;3.30;;;;;;;18.49;53.26;100829.56;5028942;28;20286;-71
2022/05/08 08:53:05;;;;;;;9.88;3.10;;;;;;;19.04;54.56;100832.78;5053003;28;20661;-68
2022/05/08 08:55:32;;;;;;;3.92;3.20;;;;;;;18.89;52.42;100832.00;5047259;28;20207;-67
2022/05/08 08:58:00;;;;;;;13.00;3.47;;;;;;;18.91;52.29;100820.59;5037495;28;20200;-69
2022/05/08 09:00:28;;;;;;;3.53;2.60;;;;;;;18.73;53.31;100826.84;5032978;28;20202;-68
2022/05/08 09:02:55;;;;;;;6.30;3.75;;;;;;;18.85;53.25;100823.25;5035590;28;20215;-68
2022/05/08 09:05:24;;;;;;;4.13;3.13;;;;;;;19.13;52.24;100830.06;5012664;28;20204;-68
2022/05/08 09:07:53;;;;;;;5.32;2.78;;;;;;;18.92;51.48;100827.59;5050518;28;20231;-68
2022/05/08 09:10:22;;;;;;;4.28;2.22;;;;;;;18.80;48.11;100809.28;5032093;28;20283;-69
2022/05/08 09:13:03;;;;;;;4.90;2.67;;;;;;;19.07;48.00;100803.81;5050171;28;20223;-68
2022/05/08 09:15:32;;;;;;;3.72;2.70;;;;;;;19.00;48.18;100810.03;5049464;28;20203;-68
2022/05/08 09:18:01;;;;;;;3.20;2.60;;;;;;;19.39;48.17;100828.97;5049632;28;20230;-68
2022/05/08 09:20:36;;;;;;;3.28;2.20;;;;;;;19.37;47.20;100809.72;5050140;28;20215;-68
2022/05/08 09:23:10;;;;;;;4.00;2.50;;;;;;;19.12;46.78;100804.66;5032655;28;20198;-68
2022/05/08 09:26:00;;;;;;;5.95;3.00;;;;;;;19.60;46.92;100813.03;5033249;28;20207;-68
2022/05/08 09:28:28;;;;;;;4.88;2.50;;;;;;;19.79;47.85;100814.59;5031861;28;20569;-68
2022/05/08 09:31:04;;;;;;;3.03;2.35;;;;;;;19.42;48.38;100815.81;5034909;28;20208;-68
2022/05/08 09:33:33;;;;;;;5.63;2.40;;;;;;;19.06;49.04;100788.06;5046104;28;20210;-69
2022/05/08 09:36:01;;;;;;;3.08;2.50;;;;;;;19.40;49.32;100815.81;5049217;28;20210;-69
2022/05/08 09:38:48;;;;;;;5.70;2.63;;;;;;;19.78;47.54;100813.69;5050458;28;20195;-67
2022/05/08 09:41:18;;;;;;;2.58;2.38;;;;;;;19.67;47.51;100810.31;5050486;28;20199;-69
2022/05/08 09:43:45;;;;;;;7.25;2.83;;;;;;;19.97;48.49;100809.09;5050285;28;20756;-69
2022/05/08 09:46:13;;;;;;;3.30;2.90;;;;;;;19.84;47.20;100785.56;5049930;28;20215;-69
2022/05/08 09:48:40;;;;;;;6.57;2.80;;;;;;;19.85;47.15;100797.84;5049758;28;20196;-69
2022/05/08 09:51:08;;;;;;;4.82;3.15;;;;;;;19.79;48.00;100812.81;5050820;28;20203;-67
2022/05/08 09:53:37;;;;;;;6.97;2.97;;;;;;;20.18;47.26;100805.34;5051472;28;20210;-68
2022/05/08 09:56:06;;;;;;;8.73;3.35;;;;;;;20.36;48.07;100796.34;5050070;28;20333;-66
2022/05/08 09:58:33;;;;;;;6.75;3.17;;;;;;;20.21;47.07;100798.28;5050188;28;20203;-67
2022/05/08 10:01:00;;;;;;;4.00;3.58;;;;;;;20.11;47.92;100780.84;5049305;28;20241;-67
2022/05/08 10:03:30;;;;;;;3.88;3.47;;;;;;;20.22;48.04;100765.78;5014848;28;20203;-67
2022/05/08 10:05:59;;;;;;;6.20;3.35;;;;;;;20.70;50.78;100787.94;5049918;28;20204;-68
2022/05/08 10:08:28;;;;;;;5.80;3.47;;;;;;;20.75;48.21;100793.16;5048299;28;20286;-67
2022/05/08 10:13:56;;;;;;;6.47;4.10;;;;;;;20.76;49.10;100787.00;5048524;28;20242;-68
2022/05/08 10:16:48;;;;;;;6.53;4.72;;;;;;;21.18;49.63;100791.63;5049302;28;20687;-68
2022/05/08 10:19:45;;;;;;;5.78;4.55;;;;;;;20.67;49.40;100776.56;5049875;28;20301;-65
2022/05/08 10:22:14;;;;;;;6.05;4.38;;;;;;;20.89;48.45;100766.56;5052325;28;20605;-69
2022/05/08 10:24:43;;;;;;;8.02;4.55;;;;;;;20.97;50.02;100784.03;5053421;28;20191;-65
2022/05/08 10:27:14;;;;;;;11.05;5.60;;;;;;;20.85;49.38;100771.03;5053363;28;20196;-68
2022/05/08 10:29:41;;;;;;;8.30;4.47;;;;;;;20.72;48.89;100766.84;5052758;28;20195;-67
2022/05/08 10:32:10;;;;;;;5.97;4.68;;;;;;;20.76;48.90;100761.47;5018356;28;20203;-68
2022/05/08 10:34:40;;;;;;;6.57;4.80;;;;;;;20.93;49.48;100778.81;5053579;28;20191;-67
2022/05/08 10:40:27;;;;;;;6.45;4.65;;;;;;;21.64;47.86;100754.69;5087998;27;20522;-67
2022/05/08 10:42:55;;;;;;;7.93;4.35;;;;;;;21.20;48.89;100762.56;5088347;28;20208;-66
2022/05/08 10:45:42;;;;;;;4.72;4.22;;;;;;;20.79;49.71;100739.50;5087556;28;20226;-67
2022/05/08 10:48:11;;;;;;;6.50;4.25;;;;;;;21.30;50.30;100763.28;5066362;28;20195;-68
2022/05/08 10:50:40;;;;;;;4.78;4.03;;;;;;;21.41;48.92;100730.50;5088112;28;20197;-67
2022/05/08 10:53:07;;;;;;;4.60;3.70;;;;;;;22.06;48.42;100755.63;5087734;28;20190;-72
2022/05/08 10:55:35;;;;;;;7.18;3.60;;;;;;;21.89;48.08;100754.19;5087585;28;20194;-71
2022/05/08 10:58:02;;;;;;;4.05;3.60;;;;;;;21.42;47.85;100744.56;5080379;28;20225;-72
2022/05/08 11:00:30;;;;;;;6.10;3.35;;;;;;;21.21;48.75;100744.06;5082450;28;21006;-72
2022/05/08 11:02:58;;;;;;;9.27;2.60;;;;;;;21.15;48.87;100719.59;5086384;28;20210;-72
2022/05/08 11:05:26;;;;;;;4.40;2.92;;;;;;;20.71;50.01;100738.75;5086279;28;20194;-68
2022/05/08 11:07:54;;;;;;;4.10;3.20;;;;;;;21.04;49.44;100738.19;5079775;28;20202;-68
2022/05/08 11:10:24;;;;;;;3.95;3.10;;;;;;;21.42;48.77;100741.94;5066642;28;20211;-68
2022/05/08 11:12:58;;;;;;;3.35;3.00;;;;;;;21.22;48.26;100723.84;5086584;28;20654;-67
2022/05/08 11:15:25;;;;;;;6.40;3.00;;;;;;;21.13;48.63;100732.78;5085976;28;20285;-68
2022/05/08 11:18:07;;;;;;;3.78;3.10;;;;;;;21.13;48.54;100735.41;5086509;28;20194;-67
2022/05/08 11:20:36;;;;;;;3.72;3.08;;;;;;;21.09;48.06;100695.91;5087376;28;20191;-68
2022/05/08 11:23:04;;;;;;;6.25;2.80;;;;;;;21.75;46.32;100696.41;5067309;28;20263;-68
2022/05/08 11:25:31;;;;;;;2.53;2.33;;;;;;;21.69;46.98;100725.53;5086550;28;20722;-69
2022/05/08 11:27:59;;;;;;;4.15;3.05;;;;;;;21.32;47.96;100728.06;5086440;28;20290;-68
2022/05/08 11:30:31;;;;;;;25.92;15.02;;;;;;;21.99;46.98;100714.41;5087095;28;20210;-70
2022/05/08 11:36:08;;;;;;;9.18;3.40;;;;;;;22.17;47.44;100724.56;5086172;28;20295;-70
2022/05/08 11:38:43;;;;;;;4.78;3.10;;;;;;;21.99;46.74;100724.97;5065393;28;20247;-70
2022/05/08 11:41:11;;;;;;;5.97;2.85;;;;;;;22.24;48.26;100718.25;5079117;28;20255;-70
2022/05/08 11:43:44;;;;;;;3.78;3.10;;;;;;;22.21;46.78;100694.53;5086789;28;20592;-69
2022/05/08 11:46:15;;;;;;;7.10;3.10;;;;;;;22.38;46.71;100687.97;5085679;28;20202;-69
2022/05/08 11:48:42;;;;;;;3.75;3.45;;;;;;;22.87;45.31;100722.91;5086544;28;20759;-70
2022/05/08 11:51:10;;;;;;;4.07;3.20;;;;;;;22.80;45.89;100694.91;5074000;28;20701;-68
2022/05/08 11:53:45;;;;;;;5.88;3.38;;;;;;;23.14;44.70;100716.94;5073015;28;20678;-70